createdAt,value
2022-09-30T00:01:09.468Z,13.05
2022-09-30T00:03:56.587Z,12.95
2022-09-30T00:06:37.465Z,13.10
2022-09-30T00:09:31.492Z,14.02
2022-09-30T00:12:11.908Z,16.05
2022-09-30T00:14:58.510Z,13.80
2022-09-30T00:17:38.926Z,13.25
2022-09-30T00:20:26.455Z,14.50
2022-09-30T00:23:06.805Z,14.48
2022-09-30T00:25:53.431Z,14.60
2022-09-30T00:28:48.446Z,16.17
2022-09-30T00:31:32.480Z,14.70
2022-09-30T00:34:19.438Z,15.90
2022-09-30T00:37:02.910Z,14.90
2022-09-30T00:39:49.436Z,15.82
2022-09-30T00:42:36.425Z,15.70
2022-09-30T00:45:27.430Z,16.55
2022-09-30T00:48:20.443Z,16.55
2022-09-30T00:51:07.444Z,14.75
2022-09-30T00:54:23.426Z,16.20
2022-09-30T00:57:08.577Z,14.27
2022-09-30T00:59:58.412Z,14.77
2022-09-30T01:02:45.410Z,14.40
2022-09-30T01:05:34.424Z,13.90
2022-09-30T01:08:24.413Z,13.65
2022-09-30T01:11:08.145Z,15.25
2022-09-30T01:13:58.419Z,14.85
2022-09-30T01:17:00.751Z,12.63
2022-09-30T01:20:04.394Z,12.95
2022-09-30T01:23:45.176Z,13.27
2022-09-30T01:26:41.377Z,13.73
2022-09-30T01:29:57.725Z,12.40
2022-09-30T01:33:21.390Z,14.07
2022-09-30T01:36:39.884Z,13.07
2022-09-30T01:39:55.340Z,11.82
2022-09-30T01:42:58.396Z,12.68
2022-09-30T01:46:04.457Z,32.17
2022-09-30T01:48:56.403Z,21.50
2022-09-30T01:51:44.722Z,41.25
2022-09-30T01:54:49.359Z,44.88
2022-09-30T02:00:44.412Z,33.95
2022-09-30T02:03:31.277Z,26.75
2022-09-30T02:06:32.363Z,20.98
2022-09-30T02:09:24.645Z,20.55
2022-09-30T02:12:16.345Z,22.10
2022-09-30T02:15:12.358Z,18.98
2022-09-30T02:17:58.624Z,15.95
2022-09-30T02:20:49.311Z,16.95
2022-09-30T02:23:35.315Z,18.02
2022-09-30T02:26:26.287Z,16.75
2022-09-30T02:29:19.578Z,17.83
2022-09-30T02:32:05.289Z,19.05
2022-09-30T02:34:58.344Z,19.98
2022-09-30T02:38:06.293Z,22.50
2022-09-30T02:41:06.277Z,23.25
2022-09-30T02:43:53.296Z,27.02
2022-09-30T02:46:39.672Z,26.92
2022-09-30T02:49:35.290Z,26.80
2022-09-30T02:52:36.268Z,26.73
2022-09-30T02:55:34.384Z,24.38
2022-09-30T02:58:24.270Z,24.13
2022-09-30T03:01:11.339Z,22.80
2022-09-30T03:04:03.396Z,24.35
2022-09-30T03:26:00.865Z,20.35
2022-09-30T03:29:15.026Z,19.30
2022-09-30T03:32:09.845Z,21.42
2022-09-30T03:35:02.888Z,22.50
2022-09-30T03:38:17.847Z,21.55
2022-09-30T03:41:12.896Z,23.63
2022-09-30T03:44:02.264Z,25.33
2022-09-30T03:46:53.898Z,23.77
2022-09-30T03:49:39.960Z,25.10
2022-09-30T03:52:27.843Z,23.38
2022-09-30T03:55:11.807Z,23.90
2022-09-30T03:57:58.830Z,24.98
2022-09-30T04:00:45.936Z,30.10
2022-09-30T04:03:34.814Z,32.67
2022-09-30T04:06:26.828Z,38.67
2022-09-30T04:09:07.316Z,38.92
2022-09-30T04:11:53.841Z,38.72
2022-09-30T04:14:34.634Z,38.42
2022-09-30T04:17:21.822Z,40.13
2022-09-30T04:20:02.906Z,39.95
2022-09-30T04:22:49.819Z,38.83
2022-09-30T04:25:43.802Z,37.00
2022-09-30T04:28:30.816Z,36.35
2022-09-30T04:31:13.046Z,32.97
2022-09-30T04:33:59.829Z,31.85
2022-09-30T04:36:39.904Z,28.45
2022-09-30T04:39:26.805Z,27.25
2022-09-30T04:42:07.214Z,25.65
2022-09-30T04:44:54.815Z,25.02
2022-09-30T04:47:41.808Z,24.55
2022-09-30T04:50:22.326Z,23.35
2022-09-30T04:53:08.822Z,21.88
2022-09-30T04:55:55.798Z,24.27
2022-09-30T04:58:37.175Z,20.85
2022-09-30T05:01:25.750Z,18.70
2022-09-30T05:04:05.874Z,19.48
2022-09-30T05:06:52.762Z,16.13
2022-09-30T05:09:32.919Z,18.08
2022-09-30T05:12:19.802Z,15.45
2022-09-30T05:14:59.856Z,17.85
2022-09-30T05:17:46.762Z,16.23
2022-09-30T05:20:33.754Z,13.90
2022-09-30T05:23:20.758Z,11.63
2022-09-30T05:26:11.998Z,12.18
2022-09-30T05:28:53.213Z,10.10
2022-09-30T05:31:39.856Z,9.30
2022-09-30T05:34:27.719Z,7.90
2022-09-30T05:37:08.811Z,8.52
2022-09-30T05:39:55.730Z,8.75
2022-09-30T05:42:37.810Z,8.48
2022-09-30T05:45:24.735Z,6.90
2022-09-30T05:48:04.824Z,6.28
2022-09-30T05:50:56.748Z,5.15
2022-09-30T05:53:47.739Z,5.70
2022-09-30T05:56:34.712Z,5.45
2022-09-30T05:59:21.730Z,6.28
2022-09-30T06:02:02.188Z,8.05
2022-09-30T06:04:48.746Z,5.63
2022-09-30T06:07:29.063Z,10.45
2022-09-30T06:10:18.720Z,10.98
2022-09-30T06:12:59.233Z,12.20
2022-09-30T06:15:46.741Z,14.80
2022-09-30T06:18:28.409Z,15.35
2022-09-30T06:21:16.687Z,14.52
2022-09-30T06:24:10.711Z,15.25
2022-09-30T06:29:38.471Z,19.75
2022-09-30T06:32:25.737Z,21.45
2022-09-30T06:35:05.775Z,20.75
2022-09-30T06:37:52.692Z,18.05
2022-09-30T06:40:32.884Z,16.15
2022-09-30T06:43:20.722Z,11.93
2022-09-30T06:46:12.447Z,15.18
2022-09-30T06:49:12.895Z,13.60
2022-09-30T06:51:53.816Z,11.75
2022-09-30T06:54:40.666Z,14.63
2022-09-30T06:57:22.973Z,12.25
2022-09-30T07:00:10.674Z,12.35
2022-09-30T07:02:50.816Z,11.45
2022-09-30T07:05:37.629Z,12.63
2022-09-30T07:08:24.635Z,11.82
2022-09-30T07:11:17.743Z,12.25
2022-09-30T07:13:57.668Z,10.80
2022-09-30T07:16:38.572Z,10.98
2022-09-30T07:19:29.638Z,10.27
2022-09-30T07:22:36.641Z,10.30
2022-09-30T07:25:23.662Z,10.38
2022-09-30T07:28:03.994Z,8.85
2022-09-30T07:30:50.631Z,8.40
2022-09-30T07:33:38.650Z,9.98
2022-09-30T07:36:32.227Z,7.55
2022-09-30T07:39:12.995Z,8.10
2022-09-30T07:41:59.638Z,6.57
2022-09-30T07:44:41.905Z,6.10
2022-09-30T07:47:29.628Z,5.97
2022-09-30T07:50:17.594Z,4.90
2022-09-30T07:53:06.608Z,4.95
2022-09-30T07:55:57.633Z,4.72
2022-09-30T07:58:37.709Z,7.07
2022-09-30T08:01:24.689Z,6.18
2022-09-30T08:04:07.741Z,6.38
2022-09-30T08:06:59.567Z,6.18
2022-09-30T08:09:46.662Z,6.05
2022-09-30T08:12:27.041Z,6.00
2022-09-30T08:15:16.635Z,5.95
2022-09-30T08:17:56.943Z,7.20
2022-09-30T08:20:43.636Z,8.38
2022-09-30T08:23:24.009Z,4.93
2022-09-30T08:26:18.584Z,5.20
2022-09-30T08:28:59.013Z,5.15
2022-09-30T08:31:46.651Z,4.20
2022-09-30T08:34:27.090Z,4.65
2022-09-30T08:37:13.576Z,5.47
2022-09-30T08:40:00.591Z,4.97
2022-09-30T08:42:56.867Z,5.95
2022-09-30T08:45:58.541Z,6.07
2022-09-30T08:48:45.585Z,6.93
2022-09-30T08:51:44.638Z,7.65
2022-09-30T08:54:40.258Z,4.53
2022-09-30T08:57:29.658Z,5.28
2022-09-30T09:00:12.720Z,5.80
2022-09-30T09:03:03.595Z,6.63
2022-09-30T09:06:32.566Z,5.47
2022-09-30T09:09:50.130Z,5.22
2022-09-30T09:12:58.580Z,5.10
2022-09-30T09:16:20.386Z,5.00
2022-09-30T09:19:19.539Z,5.50
2022-09-30T09:22:09.519Z,5.88
2022-09-30T09:24:57.693Z,8.02
2022-09-30T09:28:03.628Z,6.68
2022-09-30T09:30:51.652Z,7.35
2022-09-30T09:33:46.562Z,6.82
2022-09-30T09:36:49.687Z,6.75
2022-09-30T09:40:04.327Z,6.90
2022-09-30T09:43:19.545Z,7.55
2022-09-30T09:46:15.937Z,6.72
2022-09-30T09:49:02.519Z,6.82
2022-09-30T09:52:30.509Z,7.07
2022-09-30T09:55:11.441Z,5.95
2022-09-30T09:58:24.499Z,6.82
2022-09-30T10:01:32.951Z,7.53
2022-09-30T10:04:26.487Z,6.53
2022-09-30T10:07:16.507Z,7.13
2022-09-30T10:10:24.356Z,7.65
2022-09-30T10:13:11.589Z,7.68
2022-09-30T10:16:01.595Z,8.13
2022-09-30T10:18:50.499Z,8.18
2022-09-30T10:21:37.612Z,8.70
2022-09-30T10:24:33.490Z,9.73
2022-09-30T10:27:45.484Z,8.70
2022-09-30T10:30:45.442Z,8.55
2022-09-30T10:33:28.596Z,8.63
2022-09-30T10:36:21.454Z,8.20
2022-09-30T10:39:14.564Z,7.53
2022-09-30T10:42:10.487Z,7.85
2022-09-30T10:45:02.018Z,7.78
2022-09-30T10:47:55.470Z,7.13
2022-09-30T10:50:35.599Z,7.18
2022-09-30T10:53:33.451Z,6.57
2022-09-30T10:56:13.633Z,6.60
2022-09-30T10:59:03.474Z,6.30
2022-09-30T11:01:52.664Z,5.82
2022-09-30T11:04:47.442Z,5.22
2022-09-30T11:07:39.437Z,4.80
2022-09-30T11:10:44.450Z,6.38
2022-09-30T11:13:43.462Z,5.93
2022-09-30T11:16:57.941Z,5.78
2022-09-30T11:23:04.601Z,5.00
2022-09-30T11:26:07.455Z,4.72
2022-09-30T11:29:36.515Z,6.43
2022-09-30T11:32:39.798Z,5.47
2022-09-30T11:35:48.422Z,5.13
2022-09-30T11:38:57.021Z,5.13
2022-09-30T11:42:12.418Z,5.05
2022-09-30T11:45:16.648Z,5.50
2022-09-30T11:48:17.422Z,4.05
2022-09-30T11:50:57.772Z,4.30
2022-09-30T11:54:26.397Z,5.00
2022-09-30T11:57:09.750Z,4.20
2022-09-30T12:00:14.393Z,5.18
2022-09-30T12:03:10.273Z,4.65
2022-09-30T12:05:59.550Z,5.70
2022-09-30T12:08:57.878Z,4.93
2022-09-30T12:11:46.506Z,3.90
2022-09-30T12:14:57.378Z,4.60
2022-09-30T12:17:52.369Z,4.65
2022-09-30T12:20:45.366Z,4.53
2022-09-30T12:23:37.509Z,4.47
2022-09-30T12:26:25.363Z,3.03
2022-09-30T12:30:06.392Z,3.35
2022-09-30T12:33:13.872Z,4.25
2022-09-30T12:36:20.348Z,3.95
2022-09-30T12:39:45.352Z,4.15
2022-09-30T12:43:00.342Z,4.95
2022-09-30T12:46:14.561Z,4.15
2022-09-30T12:49:22.361Z,4.50
2022-09-30T12:52:21.306Z,4.05
2022-09-30T12:55:32.317Z,4.30
2022-09-30T12:58:27.302Z,2.42
2022-09-30T13:01:23.487Z,2.92
2022-09-30T13:04:06.471Z,3.88
2022-09-30T13:06:53.281Z,3.08
2022-09-30T13:10:04.322Z,3.70
2022-09-30T13:12:52.885Z,3.08
2022-09-30T13:15:43.345Z,3.20
2022-09-30T13:18:26.893Z,3.47
2022-09-30T13:21:19.337Z,3.05
2022-09-30T13:24:07.347Z,2.95
2022-09-30T13:27:01.297Z,2.63
2022-09-30T13:29:55.304Z,3.03
2022-09-30T13:32:43.738Z,4.00
2022-09-30T13:35:58.325Z,3.38
2022-09-30T13:41:44.437Z,3.05
2022-09-30T13:44:35.465Z,2.85
2022-09-30T13:47:32.284Z,3.08
2022-09-30T13:50:24.452Z,3.15
2022-09-30T13:53:22.638Z,2.92
2022-09-30T13:56:05.378Z,2.80
2022-09-30T13:59:01.273Z,3.28
2022-09-30T14:01:54.535Z,2.97
2022-09-30T14:05:09.574Z,3.10
2022-09-30T14:11:07.228Z,2.83
2022-09-30T14:14:35.399Z,3.47
2022-09-30T14:18:22.960Z,3.53
2022-09-30T14:21:36.290Z,3.28
2022-09-30T14:24:41.258Z,3.92
2022-09-30T14:27:46.483Z,4.47
2022-09-30T14:30:41.262Z,3.50
2022-09-30T14:33:28.340Z,3.30
2022-09-30T14:39:22.620Z,3.08
2022-09-30T14:42:14.226Z,2.92
2022-09-30T14:44:56.105Z,2.88
2022-09-30T14:47:45.240Z,3.38
2022-09-30T14:50:38.228Z,3.78
2022-09-30T14:53:36.331Z,4.35
2022-09-30T14:56:36.415Z,4.55
2022-09-30T14:59:33.181Z,3.20
2022-09-30T15:02:27.291Z,4.00
2022-09-30T15:05:07.626Z,3.03
2022-09-30T15:07:54.207Z,3.92
2022-09-30T15:10:34.299Z,3.75
2022-09-30T15:27:59.937Z,5.53
2022-09-30T15:30:43.237Z,4.13
2022-09-30T15:33:33.863Z,3.65
2022-09-30T15:36:23.846Z,4.30
2022-09-30T15:39:18.885Z,3.13
2022-09-30T15:41:59.806Z,3.15
2022-09-30T15:44:51.935Z,3.80
2022-09-30T15:47:38.870Z,3.10
2022-09-30T15:50:43.965Z,5.13
2022-09-30T15:53:32.844Z,4.05
2022-09-30T15:56:33.155Z,5.63
2022-09-30T15:59:14.841Z,3.80
2022-09-30T16:02:04.897Z,5.00
2022-09-30T16:04:52.148Z,8.80
2022-09-30T16:07:38.819Z,9.02
2022-09-30T16:10:27.890Z,7.07
2022-09-30T16:13:07.961Z,5.90
2022-09-30T16:15:54.847Z,6.22
2022-09-30T16:18:44.840Z,5.80
2022-09-30T16:21:50.896Z,5.03
2022-09-30T16:24:38.857Z,5.72
2022-09-30T16:27:39.790Z,7.13
2022-09-30T16:30:26.830Z,6.47
2022-09-30T16:33:12.074Z,6.47
2022-09-30T16:35:58.836Z,5.68
2022-09-30T16:38:39.007Z,5.28
2022-09-30T16:41:25.782Z,4.80
2022-09-30T16:44:06.066Z,5.75
2022-09-30T16:46:52.823Z,5.45
2022-09-30T16:49:34.691Z,6.60
2022-09-30T16:52:22.008Z,6.05
2022-09-30T16:55:02.077Z,7.40
2022-09-30T16:57:48.795Z,6.97
2022-09-30T17:00:35.858Z,7.72
2022-09-30T17:03:18.530Z,8.30
2022-09-30T17:06:04.769Z,8.45
2022-09-30T17:08:51.802Z,9.02
2022-09-30T17:11:33.869Z,8.23
2022-09-30T17:14:23.799Z,8.25
2022-09-30T17:17:13.786Z,7.75
2022-09-30T17:20:00.821Z,8.18
2022-09-30T17:22:40.877Z,7.63
2022-09-30T17:25:27.772Z,7.20
2022-09-30T17:28:16.927Z,6.85
2022-09-30T17:30:56.787Z,7.40
2022-09-30T17:33:40.263Z,8.90
2022-09-30T17:36:26.850Z,7.65
2022-09-30T17:39:13.743Z,7.63
2022-09-30T17:42:18.771Z,7.95
2022-09-30T17:44:59.632Z,7.05
2022-09-30T17:47:47.740Z,7.05
2022-09-30T17:50:28.140Z,6.15
2022-09-30T17:53:14.723Z,6.68
2022-09-30T17:56:19.021Z,7.05
2022-09-30T17:59:08.729Z,6.83
2022-09-30T18:01:50.769Z,7.85
2022-09-30T18:04:37.950Z,8.68
2022-09-30T18:07:21.060Z,9.15
2022-09-30T18:10:07.708Z,5.57
2022-09-30T18:12:49.630Z,5.88
2022-09-30T18:15:36.733Z,7.15
2022-09-30T18:18:23.738Z,7.63
2022-09-30T18:21:03.909Z,7.45
2022-09-30T18:23:50.699Z,7.85
2022-09-30T18:26:38.698Z,7.68
2022-09-30T18:29:24.155Z,6.20
2022-09-30T18:32:10.732Z,7.28
2022-09-30T18:34:57.696Z,6.25
2022-09-30T18:37:37.807Z,7.40
2022-09-30T18:40:26.711Z,6.40
2022-09-30T18:43:17.661Z,8.43
2022-09-30T18:46:04.749Z,6.57
2022-09-30T18:48:51.692Z,7.65
2022-09-30T18:51:32.400Z,7.80
2022-09-30T18:54:22.672Z,6.90
2022-09-30T18:57:09.672Z,7.75
2022-09-30T18:59:49.800Z,8.45
2022-09-30T19:02:37.631Z,8.65
2022-09-30T19:05:19.754Z,9.50
2022-09-30T19:08:06.668Z,8.52
2022-09-30T19:10:47.387Z,9.60
2022-09-30T19:13:35.634Z,9.07
2022-09-30T19:16:26.641Z,9.02
2022-09-30T19:19:10.298Z,8.80
2022-09-30T19:21:56.680Z,10.10
2022-09-30T19:24:38.066Z,8.88
2022-09-30T19:27:24.715Z,9.85
2022-09-30T19:30:12.616Z,8.70
2022-09-30T19:32:56.731Z,9.10
2022-09-30T19:35:43.635Z,9.30
2022-09-30T19:38:33.400Z,9.07
2022-09-30T19:41:23.627Z,8.85
2022-09-30T19:44:03.757Z,8.43
2022-09-30T19:46:50.618Z,9.55
2022-09-30T19:49:31.166Z,8.75
2022-09-30T19:52:21.876Z,9.70
2022-09-30T19:55:12.709Z,9.57
2022-09-30T19:58:02.592Z,10.35
2022-09-30T20:00:42.798Z,11.63
2022-09-30T20:03:31.611Z,10.32
2022-09-30T20:06:17.815Z,10.30
2022-09-30T20:09:06.571Z,9.60
2022-09-30T20:11:46.796Z,9.57
2022-09-30T20:14:52.588Z,10.07
2022-09-30T20:17:34.928Z,9.73
2022-09-30T20:20:40.585Z,9.57
2022-09-30T20:23:22.441Z,9.90
2022-09-30T20:26:09.635Z,10.20
2022-09-30T20:28:49.643Z,10.55
2022-09-30T20:31:36.803Z,9.35
2022-09-30T20:34:20.245Z,10.88
2022-09-30T20:37:00.576Z,9.15
2022-09-30T20:39:48.558Z,8.98
2022-09-30T20:42:29.514Z,9.57
2022-09-30T20:45:18.607Z,10.02
2022-09-30T20:48:05.520Z,9.88
2022-09-30T20:50:48.497Z,9.70
2022-09-30T20:53:35.549Z,8.93
2022-09-30T20:56:16.294Z,9.48
2022-09-30T20:59:03.521Z,7.78
2022-09-30T21:01:44.027Z,7.70
2022-09-30T21:04:30.520Z,9.30
2022-09-30T21:07:10.982Z,8.80
2022-09-30T21:09:57.535Z,8.52
2022-09-30T21:12:44.522Z,7.55
2022-09-30T21:15:31.545Z,8.93
2022-09-30T21:18:12.221Z,8.95
2022-09-30T21:20:58.515Z,9.35
2022-09-30T21:23:40.066Z,8.88
2022-09-30T21:26:29.482Z,9.05
2022-09-30T21:29:09.898Z,10.00
2022-09-30T21:31:56.555Z,9.70
2022-09-30T21:34:36.927Z,10.95
2022-09-30T21:37:24.495Z,9.32
2022-09-30T21:40:05.202Z,13.18
2022-09-30T21:42:51.563Z,8.48
2022-09-30T21:45:31.953Z,10.50
2022-09-30T21:48:20.512Z,10.32
2022-09-30T21:51:01.990Z,11.23
2022-09-30T21:53:48.479Z,10.20
2022-09-30T21:56:29.453Z,10.05
2022-09-30T21:59:16.466Z,9.27
2022-09-30T22:02:03.542Z,10.43
2022-09-30T22:04:51.481Z,10.52
2022-09-30T22:07:33.031Z,10.75
2022-09-30T22:10:19.453Z,11.82
2022-09-30T22:12:59.902Z,10.95
2022-09-30T22:15:53.450Z,11.20
2022-09-30T22:18:40.474Z,11.52
2022-09-30T22:21:21.631Z,11.90
2022-09-30T22:24:10.447Z,12.35
2022-09-30T22:26:51.267Z,12.50
2022-09-30T22:29:39.423Z,13.63
2022-09-30T22:32:19.609Z,14.18
2022-09-30T22:35:24.472Z,13.27
2022-09-30T22:41:03.877Z,13.85
2022-09-30T22:43:50.659Z,13.32
2022-09-30T22:46:33.745Z,13.32
2022-09-30T22:49:20.517Z,14.70
2022-09-30T22:52:02.145Z,15.25
2022-09-30T22:54:50.505Z,16.15
2022-09-30T22:57:31.189Z,15.32
2022-09-30T23:00:19.439Z,15.88
2022-09-30T23:02:59.782Z,16.48
2022-09-30T23:05:46.441Z,16.58
2022-09-30T23:08:34.619Z,16.73
2022-09-30T23:11:26.433Z,16.40
2022-09-30T23:14:06.792Z,16.95
2022-09-30T23:16:54.427Z,16.70
2022-09-30T23:19:41.531Z,17.13
2022-09-30T23:22:21.407Z,16.25
2022-09-30T23:25:09.593Z,17.98
2022-09-30T23:28:03.475Z,15.95
2022-09-30T23:30:50.384Z,17.70
2022-09-30T23:33:30.511Z,17.65
2022-09-30T23:36:18.389Z,17.08
2022-09-30T23:39:02.941Z,15.43
2022-09-30T23:41:52.356Z,14.07
2022-09-30T23:44:32.499Z,16.63
2022-09-30T23:47:25.381Z,17.02
2022-09-30T23:50:05.563Z,15.93
2022-09-30T23:52:52.375Z,16.20
2022-09-30T23:55:34.448Z,15.43
2022-09-30T23:58:21.446Z,17.15
